(°C)
17°
18°
18°
19°
19°
19°
18°
(°C)
12°
13°
14°
14°
14°
13°
13°
დსდ
დსდ
დსდ
დსდ
დსდ
დსდ
დსდ
(კმ/სთ)
20-35
21-37
22-38
22-40
24-41
24-42
24-41
(მმ)
0
0
0
0
0
0
0
(%)
2
2
7
3
3
3
3

მზის სიმაღლე

/ 56.4°
sun-icon
UV 5
05:10
21:27
ახალგაზრდა მთვარე (303°)
03:41
15:46

METAR Bordenau (ETNW)-თვის

დრო პირობები ტემპერატურა/
ნამი
ქარი ხილვადობა ამინდი ღრუბლები წნევა ცვლილება დაუმუშავებელი
VFR 16°C / 8°C 260º 11kt >10km - Scattered Clouds 3200ft 1014 - ETNW 250920Z 26011KT 9999 SCT032 16/08 Q1014 BLU+BLU+
VFR 16°C / 8°C 250º 9kt >10km - Scattered Clouds 3000ft 1014 - ETNW 250820Z 25009KT 9999 SCT030 16/08 Q1014 BLU+BLU+
VFR 15°C / 9°C 250º 10kt >10km - Few Clouds 2300ft 1014 - ETNW 250720Z 25010KT 9999 FEW023 15/09 Q1014 BLU+BLU+
VFR 13°C / 9°C 240º 10kt >10km - Few Clouds 3000ft 1013 - ETNW 250620Z 24010KT 9999 FEW030 13/09 Q1013 BLU+BLU+
VFR 12°C / 9°C 250º 5kt >10km - Few Clouds 14000ft 1013 - ETNW 250520Z 25005KT 9999 FEW140 12/09 Q1013 BLU+BLU+
VFR 11°C / 9°C 250º 4kt >10km - Scattered Clouds 14000ft
Broken Clouds 26000ft
1012 - ETNW 250420Z 25004KT 9999 SCT140 BKN260 11/09 Q1012 BLU+BLU+
VFR 11°C / 8°C 250º 7kt >10km - Scattered Clouds 14000ft
Broken Clouds 26000ft
1012 - ETNW 250320Z 25007KT 9999 SCT140 BKN260 11/08 Q1012 BLU+
VFR 11°C / 8°C 240º 6kt >10km - Scattered Clouds 3100ft
Scattered Clouds 16000ft
Broken Clouds 22000ft
1012 - ETNW 250220Z 24006KT 9999 SCT031 SCT160 BKN220 11/08 Q1012 BLU+
VFR 11°C / 9°C 220º 8kt >10km - Scattered Clouds 3100ft
Broken Clouds 22000ft
1012 - ETNW 250120Z 22008KT 9999 SCT031 BKN220 11/09 Q1012 BLU+
VFR 10°C / 10°C 210º 6kt >10km - Scattered Clouds 3500ft
Broken Clouds 22000ft
1011 - ETNW 250020Z 21006KT 9999 SCT035 BKN220 10/10 Q1011 BLU+
VFR 10°C / 9°C 200º 7kt >10km - Few Clouds 8000ft
Scattered Clouds 17000ft
Broken Clouds 23000ft
1011 - ETNW 242320Z 20007KT 9999 FEW080 SCT170 BKN230 10/09 Q1011 BLU+
VFR 11°C / 10°C 200º 6kt >10km - Scattered Clouds 14000ft
Broken Clouds 22000ft
1011 - ETNW 242225Z 20006KT 9999 SCT140 BKN220 11/10 Q1011 BLU+FCST CNL
VFR 11°C / 9°C 160º 3kt >10km - Few Clouds 1600ft
Scattered Clouds 14000ft
Broken Clouds 22000ft
1010 - ETNW 242120Z 16003KT 9999 FEW016 SCT140 BKN220 11/09 Q1010 BLU+BLU+
VFR 12°C / 10°C 270º 4kt >10km - Few Clouds 1600ft
Scattered Clouds 15000ft
Broken Clouds 22000ft
1010 - ETNW 242020Z 27004KT 9999 FEW016 SCT150 BKN220 12/10 Q1010 BLU+BLU+
VFR 12°C / 11°C 280º 5kt >10km - Few Clouds 1600ft
Broken Clouds 24000ft
1009 - ETNW 241920Z 28005KT 9999 FEW016 BKN240 12/11 Q1009 BLU+BLU+
VFR 14°C / 12°C 260º 5kt >10km - Few Clouds 1400ft
Scattered Clouds 9500ft
Broken Clouds 23000ft
1008 - ETNW 241820Z 26005KT 9999 FEW014 SCT095 BKN230 14/12 Q1008 BLU+BLU+
VFR 13°C / 10°C 260º 5kt >10km in the Vicinity Showers Vertical Visibility of 0ft.
Few Clouds 3000ft
Scattered Clouds 10000ft
Broken Clouds 24000ft
1008 Temporary: YLO ETNW 241720Z 26005KT 9999 VCSH FEW017 FEW030CB SCT100 BKN240 13/10 Q1008 RETSRA BLU+BLU+ TEMPO YLO
MVFR 17°C / 9°C 310º 10kt 6000m in the Vicinity Thunderstorm in the Vicinity Showers Vertical Visibility of 0ft.
Scattered Clouds 4200ft
Broken Clouds 24000ft
1007 Temporary: YLO ETNW 241620Z 31010KT 6000 VCTS VCSH FEW035CB SCT042 BKN240 17/09 Q1007 WHT BLU+ TEMPO YLO
VFR 17°C / 9°C 280º 11kt >10km - Scattered Clouds 4000ft
Broken Clouds 25000ft
1007 Temporary: YLO ETNW 241520Z 28011KT 9999 SCT040 BKN250 17/09 Q1007 BLU+BLU+ TEMPO YLO
VFR 19°C / 8°C 250º 12kt >10km - Scattered Clouds 3900ft
Scattered Clouds 27000ft
1006 Temporary: YLO ETNW 241420Z 25012KT 9999 SCT039 SCT270 19/08 Q1006 BLU+BLU+ TEMPO YLO
VFR 17°C / 8°C 250º 14kt >10km - Scattered Clouds 3600ft 1006 Temporary: YLO ETNW 241320Z 25014KT 9999 SCT036 17/08 Q1006 BLU+BLU+ TEMPO YLO
VFR 17°C / 8°C 240º 15kt >10km - Few Clouds 3000ft
Scattered Clouds 5500ft
1005 Temporary: YLO ETNW 241220Z 24015KT 9999 FEW030 SCT055 17/08 Q1005 BLU+BLU+ TEMPO YLO
MVFR 16°C / 9°C 250º 14kt >10km - Few Clouds 1600ft
Broken Clouds 3000ft
Broken Clouds 6800ft
1005 Temporary: Hail . ETNW 241120Z 25014KT 9999 FEW016 BKN030 BKN068 16/09 Q1005 BLU BLU TEMPO GRN
VFR 14°C / 12°C 240º 9kt >10km - Few Clouds 1000ft
Scattered Clouds 2100ft
Broken Clouds 5200ft
1004 Temporary: Hail . ETNW 241020Z 24009KT 9999 FEW010 SCT021 BKN052 14/12 Q1004 BLU BLU TEMPO GRN

VFR

16°C / 8°C

[მეტი]
ქარი 260º 11kt
ხილვადობა >10km
ამინდი -
ღრუბლები Scattered Clouds 3200ft
წნევა 1014
ცვლილება -
დაუმუშავებელი ETNW 250920Z 26011KT 9999 SCT032 16/08 Q1014 BLU+BLU+

VFR

16°C / 8°C

[მეტი]
ქარი 250º 9kt
ხილვადობა >10km
ამინდი -
ღრუბლები Scattered Clouds 3000ft
წნევა 1014
ცვლილება -
დაუმუშავებელი ETNW 250820Z 25009KT 9999 SCT030 16/08 Q1014 BLU+BLU+

VFR

15°C / 9°C

[მეტი]
ქარი 250º 10kt
ხილვადობა >10km
ამინდი -
ღრუბლები Few Clouds 2300ft
წნევა 1014
ცვლილება -
დაუმუშავებელი ETNW 250720Z 25010KT 9999 FEW023 15/09 Q1014 BLU+BLU+

VFR

13°C / 9°C

[მეტი]
ქარი 240º 10kt
ხილვადობა >10km
ამინდი -
ღრუბლები Few Clouds 3000ft
წნევა 1013
ცვლილება -
დაუმუშავებელი ETNW 250620Z 24010KT 9999 FEW030 13/09 Q1013 BLU+BLU+

VFR

12°C / 9°C

[მეტი]
ქარი 250º 5kt
ხილვადობა >10km
ამინდი -
ღრუბლები Few Clouds 14000ft
წნევა 1013
ცვლილება -
დაუმუშავებელი ETNW 250520Z 25005KT 9999 FEW140 12/09 Q1013 BLU+BLU+

VFR

11°C / 9°C

[მეტი]
ქარი 250º 4kt
ხილვადობა >10km
ამინდი -
ღრუბლები Scattered Clouds 14000ft
Broken Clouds 26000ft
წნევა 1012
ცვლილება -
დაუმუშავებელი ETNW 250420Z 25004KT 9999 SCT140 BKN260 11/09 Q1012 BLU+BLU+

VFR

11°C / 8°C

[მეტი]
ქარი 250º 7kt
ხილვადობა >10km
ამინდი -
ღრუბლები Scattered Clouds 14000ft
Broken Clouds 26000ft
წნევა 1012
ცვლილება -
დაუმუშავებელი ETNW 250320Z 25007KT 9999 SCT140 BKN260 11/08 Q1012 BLU+

VFR

11°C / 8°C

[მეტი]
ქარი 240º 6kt
ხილვადობა >10km
ამინდი -
ღრუბლები Scattered Clouds 3100ft
Scattered Clouds 16000ft
Broken Clouds 22000ft
წნევა 1012
ცვლილება -
დაუმუშავებელი ETNW 250220Z 24006KT 9999 SCT031 SCT160 BKN220 11/08 Q1012 BLU+

VFR

11°C / 9°C

[მეტი]
ქარი 220º 8kt
ხილვადობა >10km
ამინდი -
ღრუბლები Scattered Clouds 3100ft
Broken Clouds 22000ft
წნევა 1012
ცვლილება -
დაუმუშავებელი ETNW 250120Z 22008KT 9999 SCT031 BKN220 11/09 Q1012 BLU+

VFR

10°C / 10°C

[მეტი]
ქარი 210º 6kt
ხილვადობა >10km
ამინდი -
ღრუბლები Scattered Clouds 3500ft
Broken Clouds 22000ft
წნევა 1011
ცვლილება -
დაუმუშავებელი ETNW 250020Z 21006KT 9999 SCT035 BKN220 10/10 Q1011 BLU+

VFR

10°C / 9°C

[მეტი]
ქარი 200º 7kt
ხილვადობა >10km
ამინდი -
ღრუბლები Few Clouds 8000ft
Scattered Clouds 17000ft
Broken Clouds 23000ft
წნევა 1011
ცვლილება -
დაუმუშავებელი ETNW 242320Z 20007KT 9999 FEW080 SCT170 BKN230 10/09 Q1011 BLU+

VFR

11°C / 10°C

[მეტი]
ქარი 200º 6kt
ხილვადობა >10km
ამინდი -
ღრუბლები Scattered Clouds 14000ft
Broken Clouds 22000ft
წნევა 1011
ცვლილება -
დაუმუშავებელი ETNW 242225Z 20006KT 9999 SCT140 BKN220 11/10 Q1011 BLU+FCST CNL

VFR

11°C / 9°C

[მეტი]
ქარი 160º 3kt
ხილვადობა >10km
ამინდი -
ღრუბლები Few Clouds 1600ft
Scattered Clouds 14000ft
Broken Clouds 22000ft
წნევა 1010
ცვლილება -
დაუმუშავებელი ETNW 242120Z 16003KT 9999 FEW016 SCT140 BKN220 11/09 Q1010 BLU+BLU+

VFR

12°C / 10°C

[მეტი]
ქარი 270º 4kt
ხილვადობა >10km
ამინდი -
ღრუბლები Few Clouds 1600ft
Scattered Clouds 15000ft
Broken Clouds 22000ft
წნევა 1010
ცვლილება -
დაუმუშავებელი ETNW 242020Z 27004KT 9999 FEW016 SCT150 BKN220 12/10 Q1010 BLU+BLU+

VFR

12°C / 11°C

[მეტი]
ქარი 280º 5kt
ხილვადობა >10km
ამინდი -
ღრუბლები Few Clouds 1600ft
Broken Clouds 24000ft
წნევა 1009
ცვლილება -
დაუმუშავებელი ETNW 241920Z 28005KT 9999 FEW016 BKN240 12/11 Q1009 BLU+BLU+

VFR

14°C / 12°C

[მეტი]
ქარი 260º 5kt
ხილვადობა >10km
ამინდი -
ღრუბლები Few Clouds 1400ft
Scattered Clouds 9500ft
Broken Clouds 23000ft
წნევა 1008
ცვლილება -
დაუმუშავებელი ETNW 241820Z 26005KT 9999 FEW014 SCT095 BKN230 14/12 Q1008 BLU+BLU+

VFR

13°C / 10°C

[მეტი]
ქარი 260º 5kt
ხილვადობა >10km
ამინდი in the Vicinity Showers
ღრუბლები Vertical Visibility of 0ft.
Few Clouds 3000ft
Scattered Clouds 10000ft
Broken Clouds 24000ft
წნევა 1008
ცვლილება Temporary: YLO
დაუმუშავებელი ETNW 241720Z 26005KT 9999 VCSH FEW017 FEW030CB SCT100 BKN240 13/10 Q1008 RETSRA BLU+BLU+ TEMPO YLO

MVFR

17°C / 9°C

[მეტი]
ქარი 310º 10kt
ხილვადობა 6000m
ამინდი in the Vicinity Thunderstorm in the Vicinity Showers
ღრუბლები Vertical Visibility of 0ft.
Scattered Clouds 4200ft
Broken Clouds 24000ft
წნევა 1007
ცვლილება Temporary: YLO
დაუმუშავებელი ETNW 241620Z 31010KT 6000 VCTS VCSH FEW035CB SCT042 BKN240 17/09 Q1007 WHT BLU+ TEMPO YLO

VFR

17°C / 9°C

[მეტი]
ქარი 280º 11kt
ხილვადობა >10km
ამინდი -
ღრუბლები Scattered Clouds 4000ft
Broken Clouds 25000ft
წნევა 1007
ცვლილება Temporary: YLO
დაუმუშავებელი ETNW 241520Z 28011KT 9999 SCT040 BKN250 17/09 Q1007 BLU+BLU+ TEMPO YLO

VFR

19°C / 8°C

[მეტი]
ქარი 250º 12kt
ხილვადობა >10km
ამინდი -
ღრუბლები Scattered Clouds 3900ft
Scattered Clouds 27000ft
წნევა 1006
ცვლილება Temporary: YLO
დაუმუშავებელი ETNW 241420Z 25012KT 9999 SCT039 SCT270 19/08 Q1006 BLU+BLU+ TEMPO YLO

VFR

17°C / 8°C

[მეტი]
ქარი 250º 14kt
ხილვადობა >10km
ამინდი -
ღრუბლები Scattered Clouds 3600ft
წნევა 1006
ცვლილება Temporary: YLO
დაუმუშავებელი ETNW 241320Z 25014KT 9999 SCT036 17/08 Q1006 BLU+BLU+ TEMPO YLO

VFR

17°C / 8°C

[მეტი]
ქარი 240º 15kt
ხილვადობა >10km
ამინდი -
ღრუბლები Few Clouds 3000ft
Scattered Clouds 5500ft
წნევა 1005
ცვლილება Temporary: YLO
დაუმუშავებელი ETNW 241220Z 24015KT 9999 FEW030 SCT055 17/08 Q1005 BLU+BLU+ TEMPO YLO

MVFR

16°C / 9°C

[მეტი]
ქარი 250º 14kt
ხილვადობა >10km
ამინდი -
ღრუბლები Few Clouds 1600ft
Broken Clouds 3000ft
Broken Clouds 6800ft
წნევა 1005
ცვლილება Temporary: Hail .
დაუმუშავებელი ETNW 241120Z 25014KT 9999 FEW016 BKN030 BKN068 16/09 Q1005 BLU BLU TEMPO GRN

VFR

14°C / 12°C

[მეტი]
ქარი 240º 9kt
ხილვადობა >10km
ამინდი -
ღრუბლები Few Clouds 1000ft
Scattered Clouds 2100ft
Broken Clouds 5200ft
წნევა 1004
ცვლილება Temporary: Hail .
დაუმუშავებელი ETNW 241020Z 24009KT 9999 FEW010 SCT021 BKN052 14/12 Q1004 BLU BLU TEMPO GRN

TAF Bordenau (ETNW)-თვის

From till


From till Wind 250º 10kt. Gust 20kt. Visibility 10km or more. Scattered Clouds 4000ft.
With 30% probability, from till Wind 240º 12kt. Gust 22kt. Visibility 4000m. Showers Rain . Broken Clouds 3000ft.
Becoming from till Wind 230º 10kt. Gust 20kt. Visibility 10km or more. Broken Clouds 8000ft.
Temporarly from till Wind 260º 12kt. Gust 22kt. Visibility 5000m. Light Rain . Broken Clouds 2000ft.

დაუმუშავებელი: TAF ETNW 250415Z 2505/2605 25010G20KT 9999 NSW SCT040 PROB30 2509/2516 24012G22KT 4000 SHRA BKN030CB BECMG 2516/2518 23010G20KT 9999 NSW BKN080 TEMPO 2523/2604 26012G22KT 5000 -RA BKN020 BY ETGL

rainNOW: წვიმა ახლადაღმა$ s და გარემოთი (25 კმ რადიუსით)

0.0 მმ
0.0 მმ
0.0 მმ
0.0 მმ
0.0 მმ
0.0 მმ
0.0 მმ
0.0 მმ
0.0 მმ
0.0 მმ
0.0 მმ
0.0 მმ

რადარი Bordenau-თვის

გაწურეთ
Მსუბუქი
ზომიერი
Მძიმე
Ძალიან მძიმე
სეტყვა

მდებარეობის მარკერი მოთავსებულია Bordenau -ზე. ეს ანიმაცია აჩვენებს ნალექების სარადარო მონაცემებს როგორც ბოლო საათის განმავლობაში, ასევე 2h პროგნოზს. წვიმა ან თოვლის მსუბუქი ვარდნა შეიძლება უჩინარი იყოს რადარისთვის. ნალექების ინტენსივობა არის კოდირებული ფერით, დაწყებული ღია ლურჯიდან ნარინჯისფერამდე.
Copyright 2022 Deutscher Wetterdienst / meteoblue.

მიმდინარე სატელიტისა და წვიმის სურათები Bordenau-თვის, გერმანია

ლოკაციის მარკერი დაყენებყლია Bordenauზე. [მეტი]

რეალურ დროში სატელიტური სურათი აერთიანებს ხილულ სინათლეს დღისით ღამის განმავლობაში ინფრაწითელ გამოსხივებასთან ერთად. ღამით, სურათი არ არის მუქი, რადგან ინფრაწითელ გამოსხივებას შეუძლია ტემპერატურის განსხვავებების დადგენა. სამწუხაროდ, დაბალი ღრუბლები და ნისლი ძნელია განასხვავონ მიწის ტემპერატურისგან და, შესაბამისად, ისინი შეიძლება თითქმის არ ჩანდეს ღამით. Meteosat სატელიტური გამოსახულება ევროპისთვის ახლდება რეალურ დროში ყოველ 5 წუთში. GOES-16/GOES-17 (ჩრდილოეთი და სამხრეთ ამერიკა) და ჰიმავარი (აზია) გამოსახულებები ახლდება ყოველ 10 წუთში.

ნალექიანობა განისაზღვრება რადარიდან ან სატელიტიდან. ღამით ნალექიანობის განსაზღვრა სატელიტიდან ნაკლებად ზუსტია ვიდრე დღისით. ნარინჯისფერი ჯვრები აღნიშნავს ადგილებს, სადაც ელვა იყო დაფიქსირებული (ევროპაზე).

საავტორო უფლებები 2022 EUMETSAT / meteoblue. ელვის შესახებ მონაცემები მოწოდებული nowcast მიერ.

თავში დაბრუნება